createdAt,value
2019-04-04T00:01:34.967Z,8.41
2019-04-04T00:04:04.763Z,8.46
2019-04-04T00:06:34.511Z,8.45
2019-04-04T00:09:05.518Z,8.39
2019-04-04T00:11:36.925Z,8.31
2019-04-04T00:14:06.720Z,8.36
2019-04-04T00:16:36.569Z,8.32
2019-04-04T00:19:06.303Z,8.34
2019-04-04T00:21:35.980Z,8.34
2019-04-04T00:24:07.086Z,8.29
2019-04-04T00:26:37.398Z,8.32
2019-04-04T00:29:07.087Z,8.29
2019-04-04T00:31:36.595Z,8.25
2019-04-04T00:34:06.381Z,8.15
2019-04-04T00:36:36.252Z,7.93
2019-04-04T00:39:09.450Z,7.80
2019-04-04T00:41:39.276Z,7.80
2019-04-04T00:44:09.128Z,7.88
2019-04-04T00:46:38.948Z,7.88
2019-04-04T00:49:08.674Z,7.84
2019-04-04T00:51:39.020Z,7.98
2019-04-04T00:54:09.450Z,7.98
2019-04-04T00:56:38.980Z,7.90
2019-04-04T00:59:08.768Z,7.91
2019-04-04T01:01:38.463Z,7.93
2019-04-04T01:04:09.148Z,7.98
2019-04-04T01:06:39.009Z,7.98
2019-04-04T01:09:13.167Z,7.95
2019-04-04T01:11:40.406Z,7.95
2019-04-04T01:14:10.237Z,7.98
2019-04-04T01:16:39.927Z,7.96
2019-04-04T01:19:10.332Z,7.85
2019-04-04T01:21:40.111Z,7.75
2019-04-04T01:24:09.803Z,7.70
2019-04-04T01:26:39.557Z,7.69
2019-04-04T01:29:10.932Z,7.72
2019-04-04T01:31:40.770Z,7.69
2019-04-04T01:34:10.570Z,7.62
2019-04-04T01:36:40.348Z,7.63
2019-04-04T01:39:10.282Z,7.54
2019-04-04T01:41:39.847Z,7.46
2019-04-04T01:44:11.377Z,7.38
2019-04-04T01:46:40.923Z,7.28
2019-04-04T01:49:10.559Z,7.25
2019-04-04T01:51:40.175Z,7.15
2019-04-04T01:54:09.656Z,7.00
2019-04-04T01:56:39.274Z,6.78
2019-04-04T01:59:10.230Z,6.57
2019-04-04T02:01:40.221Z,6.51
2019-04-04T02:04:09.890Z,6.45
2019-04-04T02:06:39.557Z,6.38
2019-04-04T02:09:09.402Z,6.31
2019-04-04T02:11:38.831Z,6.30
2019-04-04T02:14:09.898Z,6.23
2019-04-04T02:16:39.836Z,6.20
2019-04-04T02:19:09.523Z,6.14
2019-04-04T02:21:39.308Z,6.05
2019-04-04T02:24:09.040Z,6.11
2019-04-04T02:26:38.607Z,6.19
2019-04-04T02:29:10.707Z,6.14
2019-04-04T02:31:43.530Z,6.21
2019-04-04T02:34:13.156Z,6.17
2019-04-04T02:36:42.688Z,6.15
2019-04-04T02:39:15.612Z,6.24
2019-04-04T02:41:48.501Z,6.37
2019-04-04T02:44:16.617Z,6.37
2019-04-04T02:46:46.304Z,6.40
2019-04-04T02:49:15.943Z,6.32
2019-04-04T02:51:45.496Z,6.30
2019-04-04T02:54:15.177Z,6.24
2019-04-04T02:56:44.866Z,6.14
2019-04-04T02:59:20.367Z,6.15
2019-04-04T03:01:45.827Z,6.08
2019-04-04T03:04:15.722Z,6.06
2019-04-04T03:06:45.539Z,6.03
2019-04-04T03:09:15.079Z,6.09
2019-04-04T03:11:45.013Z,5.99
2019-04-04T03:14:14.788Z,6.02
2019-04-04T03:16:44.490Z,6.14
2019-04-04T03:19:14.217Z,6.19
2019-04-04T03:21:43.934Z,6.30
2019-04-04T03:24:13.713Z,6.40
2019-04-04T03:26:43.462Z,6.51
2019-04-04T03:29:13.082Z,6.54
2019-04-04T03:31:42.907Z,6.60
2019-04-04T03:34:13.271Z,6.60
2019-04-04T03:36:42.872Z,6.56
2019-04-04T03:39:12.539Z,6.48
2019-04-04T03:41:42.385Z,6.54
2019-04-04T03:44:12.107Z,6.64
2019-04-04T03:46:41.804Z,6.73
2019-04-04T03:49:11.471Z,6.68
2019-04-04T03:51:41.270Z,6.66
2019-04-04T03:54:16.934Z,6.71
2019-04-04T03:56:46.764Z,6.70
2019-04-04T03:59:16.363Z,6.70
2019-04-04T04:01:46.905Z,6.77
2019-04-04T04:04:16.743Z,6.81
2019-04-04T04:06:46.395Z,6.80
2019-04-04T04:09:15.953Z,6.79
2019-04-04T04:11:45.710Z,6.76
2019-04-04T04:14:15.429Z,6.75
2019-04-04T04:16:45.136Z,6.73
2019-04-04T04:19:14.827Z,6.80
2019-04-04T04:21:44.514Z,6.79
2019-04-04T04:24:14.410Z,6.79
2019-04-04T04:26:44.050Z,6.86
2019-04-04T04:29:13.812Z,6.86
2019-04-04T04:31:48.233Z,6.76
2019-04-04T04:34:14.917Z,6.76
2019-04-04T04:36:47.694Z,6.75
2019-04-04T04:39:15.897Z,6.69
2019-04-04T04:41:45.505Z,6.61
2019-04-04T04:44:15.056Z,6.63
2019-04-04T04:46:44.729Z,6.59
2019-04-04T04:49:14.372Z,6.46
2019-04-04T04:51:44.305Z,6.48
2019-04-04T04:54:14.171Z,6.49
2019-04-04T04:56:43.842Z,6.56
2019-04-04T04:59:13.940Z,6.53
2019-04-04T05:01:43.721Z,6.48
2019-04-04T05:04:13.303Z,6.50
2019-04-04T05:06:43.109Z,6.43
2019-04-04T05:09:14.160Z,6.50
2019-04-04T05:11:44.411Z,6.52
2019-04-04T05:14:14.028Z,6.59
2019-04-04T05:16:43.737Z,6.63
2019-04-04T05:19:13.577Z,6.50
2019-04-04T05:21:43.155Z,6.63
2019-04-04T05:24:13.016Z,6.68
2019-04-04T05:26:42.794Z,6.60
2019-04-04T05:29:13.984Z,6.69
2019-04-04T05:31:43.836Z,6.84
2019-04-04T05:34:13.617Z,6.91
2019-04-04T05:36:43.290Z,6.90
2019-04-04T05:39:13.027Z,7.05
2019-04-04T05:41:42.649Z,7.11
2019-04-04T05:44:12.407Z,7.27
2019-04-04T05:46:42.127Z,7.27
2019-04-04T05:49:11.780Z,7.47
2019-04-04T05:51:41.405Z,7.65
2019-04-04T05:54:11.186Z,7.92
2019-04-04T05:56:40.769Z,8.00
2019-04-04T05:59:10.286Z,8.00
2019-04-04T06:01:40.098Z,8.15
2019-04-04T06:04:09.813Z,8.27
2019-04-04T06:06:39.380Z,8.46
2019-04-04T06:09:09.409Z,8.82
2019-04-04T06:11:39.011Z,9.01
2019-04-04T06:14:08.662Z,9.42
2019-04-04T06:16:38.315Z,10.00
2019-04-04T06:19:07.974Z,9.99
2019-04-04T06:21:39.294Z,9.98
2019-04-04T06:24:08.988Z,10.05
2019-04-04T06:26:38.835Z,10.02
2019-04-04T06:29:08.531Z,9.95
2019-04-04T06:31:38.212Z,10.16
2019-04-04T06:34:10.051Z,10.50
2019-04-04T06:36:39.095Z,10.67
2019-04-04T06:39:09.096Z,10.69
2019-04-04T06:41:38.815Z,10.88
2019-04-04T06:44:08.704Z,11.02
2019-04-04T06:46:38.271Z,11.40
2019-04-04T06:49:08.050Z,11.73
2019-04-04T06:51:37.738Z,12.09
2019-04-04T06:54:07.485Z,12.01
2019-04-04T06:56:37.141Z,13.48
2019-04-04T06:59:06.785Z,15.07
2019-04-04T07:01:36.575Z,16.54
2019-04-04T07:04:06.048Z,18.10
2019-04-04T07:06:35.677Z,19.08
2019-04-04T07:09:06.416Z,19.26
2019-04-04T07:11:35.964Z,19.60
2019-04-04T07:14:05.859Z,20.11
2019-04-04T07:16:36.894Z,19.81
2019-04-04T07:19:08.087Z,19.16
2019-04-04T07:21:37.917Z,18.87
2019-04-04T07:24:07.627Z,18.09
2019-04-04T07:26:37.188Z,17.82
2019-04-04T07:29:06.843Z,18.46
2019-04-04T07:31:38.312Z,18.31
2019-04-04T07:34:07.981Z,18.54
2019-04-04T07:36:37.613Z,18.41
2019-04-04T07:39:07.683Z,18.26
2019-04-04T07:41:39.989Z,18.22
2019-04-04T07:44:08.717Z,17.56
2019-04-04T07:46:40.935Z,17.46
2019-04-04T07:49:09.830Z,17.73
2019-04-04T07:51:39.595Z,17.66
2019-04-04T07:54:09.279Z,17.50
2019-04-04T07:56:39.126Z,17.20
2019-04-04T07:59:08.793Z,17.00
2019-04-04T08:01:50.279Z,16.81
2019-04-04T08:04:09.732Z,16.76
2019-04-04T08:06:39.560Z,16.85
2019-04-04T08:09:09.233Z,16.71
2019-04-04T08:11:38.834Z,16.64
2019-04-04T08:14:08.341Z,16.37
2019-04-04T08:16:38.075Z,16.27
2019-04-04T08:19:07.839Z,16.24
2019-04-04T08:21:37.524Z,16.11
2019-04-04T08:24:07.294Z,16.06
2019-04-04T08:26:37.058Z,16.12
2019-04-04T08:29:06.846Z,15.76
2019-04-04T08:31:36.525Z,16.11
2019-04-04T08:34:06.672Z,16.19
2019-04-04T08:36:36.387Z,16.05
2019-04-04T08:39:10.322Z,16.41
2019-04-04T08:41:39.923Z,16.69
2019-04-04T08:44:09.727Z,17.26
2019-04-04T08:46:39.479Z,17.28
2019-04-04T08:49:09.124Z,17.97
2019-04-04T08:51:38.835Z,18.41
2019-04-04T08:54:08.613Z,18.48
2019-04-04T08:56:38.245Z,18.04
2019-04-04T08:59:07.859Z,18.57
2019-04-04T09:01:37.439Z,18.88
2019-04-04T09:04:07.109Z,19.28
2019-04-04T09:06:36.787Z,19.64
2019-04-04T09:09:07.946Z,19.79
2019-04-04T09:11:37.590Z,19.66
2019-04-04T09:14:07.249Z,20.36
2019-04-04T09:16:36.822Z,20.81
2019-04-04T09:19:06.535Z,21.30
2019-04-04T09:21:36.132Z,21.62
2019-04-04T09:24:05.689Z,21.78
2019-04-04T09:26:35.437Z,22.22
2019-04-04T09:29:05.093Z,22.56
2019-04-04T09:31:34.705Z,24.27
2019-04-04T09:34:04.272Z,27.03
2019-04-04T09:36:34.106Z,29.34
2019-04-04T09:39:06.984Z,31.36
2019-04-04T09:41:36.528Z,32.90
2019-04-04T09:44:06.377Z,34.34
2019-04-04T09:46:36.059Z,33.67
2019-04-04T09:49:05.859Z,34.28
2019-04-04T09:51:35.637Z,33.46
2019-04-04T09:54:05.460Z,32.42
2019-04-04T09:56:35.036Z,30.29
2019-04-04T09:59:04.779Z,29.21
2019-04-04T10:01:34.514Z,27.93
2019-04-04T10:04:04.205Z,27.43
2019-04-04T10:06:33.951Z,27.99
2019-04-04T10:09:14.974Z,29.17
2019-04-04T10:11:36.691Z,31.15
2019-04-04T10:14:06.317Z,31.40
2019-04-04T10:16:36.001Z,31.75
2019-04-04T10:19:05.695Z,33.37
2019-04-04T10:21:35.303Z,34.35
2019-04-04T10:24:04.993Z,34.61
2019-04-04T10:26:34.745Z,35.35
2019-04-04T10:29:04.416Z,35.66
2019-04-04T10:31:34.006Z,34.55
2019-04-04T10:34:03.710Z,36.18
2019-04-04T10:36:33.209Z,37.12
2019-04-04T10:39:04.914Z,38.00
2019-04-04T10:41:34.615Z,37.88
2019-04-04T10:44:04.369Z,36.48
2019-04-04T10:46:34.058Z,36.26
2019-04-04T10:49:03.924Z,35.24
2019-04-04T10:51:33.567Z,33.50
2019-04-04T10:54:03.235Z,32.87
2019-04-04T10:56:32.929Z,33.33
2019-04-04T10:59:02.737Z,33.71
2019-04-04T11:01:32.414Z,34.29
2019-04-04T11:04:02.096Z,35.30
2019-04-04T11:06:31.873Z,35.01
2019-04-04T11:09:01.450Z,33.32
2019-04-04T11:11:31.069Z,31.47
2019-04-04T11:14:00.619Z,31.49
2019-04-04T11:16:30.753Z,30.72
2019-04-04T11:19:00.335Z,30.65
2019-04-04T11:21:29.972Z,31.19
2019-04-04T11:23:59.607Z,31.48
2019-04-04T11:26:29.126Z,30.12
2019-04-04T11:28:58.916Z,28.34
2019-04-04T11:31:28.698Z,27.16
2019-04-04T11:33:58.282Z,26.60
2019-04-04T11:36:27.933Z,25.71
2019-04-04T11:38:57.666Z,24.98
2019-04-04T11:41:27.227Z,23.96
2019-04-04T11:43:56.905Z,23.60
2019-04-04T11:46:26.749Z,22.75
2019-04-04T11:48:56.357Z,22.19
2019-04-04T11:51:25.995Z,21.95
2019-04-04T11:53:55.579Z,21.69
2019-04-04T11:56:25.183Z,21.75
2019-04-04T11:58:54.900Z,21.56
2019-04-04T12:01:25.663Z,21.44
2019-04-04T12:03:55.440Z,21.48
2019-04-04T12:06:25.176Z,21.20
2019-04-04T12:08:54.637Z,20.62
2019-04-04T12:11:24.232Z,20.19
2019-04-04T12:13:53.847Z,20.21
2019-04-04T12:16:23.504Z,20.49
2019-04-04T12:18:53.148Z,20.75
2019-04-04T12:21:23.009Z,20.78
2019-04-04T12:23:52.641Z,20.58
2019-04-04T12:26:22.371Z,20.33
2019-04-04T12:28:51.960Z,19.94
2019-04-04T12:31:21.563Z,20.12
2019-04-04T12:33:51.283Z,20.05
2019-04-04T12:36:24.857Z,19.72
2019-04-04T12:38:53.324Z,19.41
2019-04-04T12:41:22.942Z,19.32
2019-04-04T12:43:52.706Z,19.20
2019-04-04T12:46:22.347Z,19.10
2019-04-04T12:48:51.957Z,18.98
2019-04-04T12:51:21.734Z,18.80
2019-04-04T12:53:51.385Z,18.64
2019-04-04T12:56:21.035Z,18.73
2019-04-04T12:58:50.627Z,18.53
2019-04-04T13:01:21.462Z,18.48
2019-04-04T13:03:51.240Z,18.41
2019-04-04T13:06:20.862Z,18.65
2019-04-04T13:08:50.641Z,18.75
2019-04-04T13:11:20.529Z,18.79
2019-04-04T13:13:50.143Z,18.71
2019-04-04T13:16:19.901Z,18.63
2019-04-04T13:18:49.561Z,18.75
2019-04-04T13:21:21.516Z,18.43
2019-04-04T13:23:50.804Z,18.41
2019-04-04T13:26:20.469Z,18.24
2019-04-04T13:28:50.136Z,18.24
2019-04-04T13:31:19.705Z,18.19
2019-04-04T13:33:49.642Z,18.19
2019-04-04T13:36:19.110Z,17.96
2019-04-04T13:38:48.701Z,17.89
2019-04-04T13:41:22.059Z,17.73
2019-04-04T13:43:51.470Z,17.93
2019-04-04T13:46:24.628Z,18.02
2019-04-04T13:48:52.419Z,17.92
2019-04-04T13:51:22.097Z,17.95
2019-04-04T13:53:51.712Z,18.15
2019-04-04T13:56:21.261Z,18.15
2019-04-04T13:58:50.962Z,17.92
2019-04-04T14:01:20.647Z,17.94
2019-04-04T14:03:50.527Z,17.87
2019-04-04T14:06:20.189Z,17.81
2019-04-04T14:08:49.715Z,17.76
2019-04-04T14:11:19.322Z,17.84
2019-04-04T14:13:49.631Z,17.60
2019-04-04T14:16:19.314Z,17.45
2019-04-04T14:18:49.154Z,17.45
2019-04-04T14:21:18.870Z,17.36
2019-04-04T14:23:52.072Z,17.19
2019-04-04T14:26:19.863Z,17.24
2019-04-04T14:28:49.696Z,17.13
2019-04-04T14:31:19.369Z,17.04
2019-04-04T14:33:49.093Z,16.98
2019-04-04T14:36:18.720Z,16.87
2019-04-04T14:38:48.347Z,16.79
2019-04-04T14:41:17.970Z,16.82
2019-04-04T14:43:48.604Z,16.79
2019-04-04T14:46:18.185Z,16.77
2019-04-04T14:48:47.959Z,16.71
2019-04-04T14:51:17.660Z,16.54
2019-04-04T14:53:47.374Z,16.49
2019-04-04T14:56:17.213Z,16.45
2019-04-04T14:58:46.841Z,16.43
2019-04-04T15:01:16.449Z,16.41
2019-04-04T15:03:46.124Z,16.38
2019-04-04T15:06:15.649Z,16.22
2019-04-04T15:08:45.364Z,16.21
2019-04-04T15:11:24.069Z,16.10
2019-04-04T15:13:46.307Z,16.12
2019-04-04T15:16:17.517Z,16.10
2019-04-04T15:18:47.211Z,16.11
2019-04-04T15:21:17.304Z,16.14
2019-04-04T15:23:47.011Z,15.99
2019-04-04T15:26:16.690Z,16.02
2019-04-04T15:28:46.369Z,15.91
2019-04-04T15:31:16.042Z,15.81
2019-04-04T15:33:45.748Z,15.79
2019-04-04T15:36:15.322Z,15.76
2019-04-04T15:38:44.958Z,15.65
2019-04-04T15:41:14.589Z,15.57
2019-04-04T15:43:44.188Z,15.42
2019-04-04T15:46:14.001Z,15.48
2019-04-04T15:48:43.642Z,15.42
2019-04-04T15:51:13.291Z,15.39
2019-04-04T15:53:42.922Z,15.37
2019-04-04T15:56:12.810Z,15.35
2019-04-04T15:58:42.377Z,15.33
2019-04-04T16:01:11.981Z,15.25
2019-04-04T16:03:41.734Z,15.30
2019-04-04T16:06:11.567Z,15.22
2019-04-04T16:08:41.461Z,15.14
2019-04-04T16:11:11.056Z,15.27
2019-04-04T16:13:40.794Z,15.22
2019-04-04T16:16:10.314Z,15.15
2019-04-04T16:18:39.967Z,15.00
2019-04-04T16:21:09.576Z,14.90
2019-04-04T16:23:39.206Z,14.76
2019-04-04T16:26:08.925Z,14.70
2019-04-04T16:28:38.479Z,14.65
2019-04-04T16:31:08.467Z,14.62
2019-04-04T16:33:38.079Z,14.41
2019-04-04T16:36:07.811Z,14.14
2019-04-04T16:38:37.245Z,13.84
2019-04-04T16:41:06.854Z,13.73
2019-04-04T16:43:36.635Z,13.70
2019-04-04T16:46:06.547Z,13.67
2019-04-04T16:48:36.462Z,13.60
2019-04-04T16:51:06.314Z,13.50
2019-04-04T16:53:36.049Z,13.36
2019-04-04T16:56:05.795Z,13.40
2019-04-04T16:58:36.950Z,13.34
2019-04-04T17:01:06.770Z,13.28
2019-04-04T17:03:36.605Z,13.25
2019-04-04T17:06:06.239Z,13.26
2019-04-04T17:08:35.763Z,13.17
2019-04-04T17:11:05.564Z,13.13
2019-04-04T17:13:35.295Z,13.00
2019-04-04T17:16:05.133Z,12.88
2019-04-04T17:18:34.836Z,12.74
2019-04-04T17:21:04.656Z,12.75
2019-04-04T17:23:34.339Z,12.64
2019-04-04T17:26:04.176Z,12.59
2019-04-04T17:28:34.127Z,12.56
2019-04-04T17:31:06.671Z,12.48
2019-04-04T17:33:35.025Z,12.41
2019-04-04T17:36:04.923Z,12.39
2019-04-04T17:38:34.634Z,12.36
2019-04-04T17:41:04.430Z,12.31
2019-04-04T17:43:34.551Z,12.20
2019-04-04T17:46:04.488Z,12.09
2019-04-04T17:48:34.623Z,12.03
2019-04-04T17:51:04.325Z,11.89
2019-04-04T17:53:34.191Z,11.87
2019-04-04T17:56:04.234Z,11.83
2019-04-04T17:58:33.848Z,11.80
2019-04-04T18:01:05.367Z,11.72
2019-04-04T18:03:34.977Z,11.65
2019-04-04T18:06:04.756Z,11.59
2019-04-04T18:08:34.389Z,11.56
2019-04-04T18:11:04.167Z,11.50
2019-04-04T18:13:33.839Z,11.54
2019-04-04T18:16:03.584Z,11.58
2019-04-04T18:18:33.229Z,11.52
2019-04-04T18:21:02.824Z,11.48
2019-04-04T18:23:32.424Z,11.37
2019-04-04T18:26:03.371Z,11.49
2019-04-04T18:28:33.265Z,11.46
2019-04-04T18:31:03.033Z,11.40
2019-04-04T18:33:32.724Z,11.43
2019-04-04T18:36:02.361Z,11.45
2019-04-04T18:38:32.116Z,11.35
2019-04-04T18:41:01.795Z,11.32
2019-04-04T18:43:31.511Z,11.18
2019-04-04T18:46:01.037Z,11.13
2019-04-04T18:48:30.775Z,11.05
2019-04-04T18:51:00.484Z,11.00
2019-04-04T18:53:30.124Z,10.98
2019-04-04T18:55:59.740Z,10.94
2019-04-04T18:58:29.414Z,10.94
2019-04-04T19:01:01.115Z,10.96
2019-04-04T19:03:30.664Z,10.91
2019-04-04T19:06:00.402Z,10.93
2019-04-04T19:08:30.178Z,10.87
2019-04-04T19:10:59.837Z,10.85
2019-04-04T19:13:29.593Z,10.86
2019-04-04T19:15:59.502Z,10.85
2019-04-04T19:18:29.241Z,10.77
2019-04-04T19:20:58.916Z,10.75
2019-04-04T19:23:28.617Z,10.74
2019-04-04T19:25:58.408Z,10.73
2019-04-04T19:28:28.126Z,10.64
2019-04-04T19:30:58.688Z,10.73
2019-04-04T19:33:28.516Z,10.69
2019-04-04T19:35:58.149Z,10.71
2019-04-04T19:38:27.827Z,10.62
2019-04-04T19:40:57.518Z,10.61
2019-04-04T19:43:27.179Z,10.56
2019-04-04T19:45:57.220Z,10.49
2019-04-04T19:48:26.915Z,10.49
2019-04-04T19:50:56.471Z,10.45
2019-04-04T19:53:26.241Z,10.43
2019-04-04T19:55:55.871Z,10.46
2019-04-04T19:58:25.436Z,10.45
2019-04-04T20:00:55.377Z,10.39
2019-04-04T20:03:25.062Z,10.33
2019-04-04T20:05:54.717Z,10.38
2019-04-04T20:08:24.443Z,10.34
2019-04-04T20:10:54.330Z,10.34
2019-04-04T20:13:30.831Z,10.32
2019-04-04T20:15:55.383Z,10.32
2019-04-04T20:18:24.830Z,10.27
2019-04-04T20:20:54.526Z,10.21
2019-04-04T20:23:24.289Z,10.20
2019-04-04T20:25:54.008Z,10.17
2019-04-04T20:28:23.692Z,10.13
2019-04-04T20:30:53.322Z,10.17
2019-04-04T20:33:22.932Z,10.16
2019-04-04T20:35:52.828Z,10.13
2019-04-04T20:38:22.328Z,10.09
2019-04-04T20:40:52.027Z,10.04
2019-04-04T20:43:21.653Z,10.06
2019-04-04T20:45:51.514Z,10.01
2019-04-04T20:48:21.145Z,10.02
2019-04-04T20:50:50.774Z,9.96
2019-04-04T20:53:22.103Z,9.90
2019-04-04T20:55:51.658Z,9.91
2019-04-04T20:58:21.370Z,9.88
2019-04-04T21:00:50.966Z,9.86
2019-04-04T21:03:20.627Z,9.87
2019-04-04T21:05:50.275Z,9.88
2019-04-04T21:08:19.978Z,9.96
2019-04-04T21:10:49.758Z,9.95
2019-04-04T21:13:19.544Z,9.90
2019-04-04T21:15:49.051Z,9.79
2019-04-04T21:18:18.588Z,9.66
2019-04-04T21:20:48.206Z,9.67
2019-04-04T21:23:17.814Z,9.69
2019-04-04T21:25:47.452Z,9.63
2019-04-04T21:28:17.075Z,9.64
2019-04-04T21:30:47.007Z,9.55
2019-04-04T21:33:16.588Z,9.42
2019-04-04T21:35:46.169Z,9.42
2019-04-04T21:38:15.590Z,9.44
2019-04-04T21:40:45.265Z,9.39
2019-04-04T21:43:14.952Z,9.37
2019-04-04T21:45:44.602Z,9.31
2019-04-04T21:48:14.235Z,9.24
2019-04-04T21:50:43.897Z,9.24
2019-04-04T21:53:13.704Z,9.28
2019-04-04T21:55:43.450Z,9.24
2019-04-04T21:58:13.099Z,9.18
2019-04-04T22:00:43.862Z,9.18
2019-04-04T22:03:13.603Z,9.13
2019-04-04T22:05:43.753Z,9.18
2019-04-04T22:08:13.576Z,9.17
2019-04-04T22:10:43.359Z,9.17
2019-04-04T22:13:13.063Z,9.20
2019-04-04T22:15:42.965Z,9.27
2019-04-04T22:18:12.635Z,9.27
2019-04-04T22:20:42.830Z,9.32
2019-04-04T22:23:12.554Z,9.43
2019-04-04T22:25:42.187Z,9.41
2019-04-04T22:28:11.808Z,9.33
2019-04-04T22:30:41.436Z,9.33
2019-04-04T22:33:11.112Z,9.26
2019-04-04T22:35:40.676Z,9.07
2019-04-04T22:38:10.367Z,9.07
2019-04-04T22:40:40.071Z,9.00
2019-04-04T22:43:09.705Z,8.97
2019-04-04T22:45:39.383Z,8.93
2019-04-04T22:48:09.166Z,8.93
2019-04-04T22:50:38.639Z,8.93
2019-04-04T22:53:08.317Z,8.81
2019-04-04T22:55:38.072Z,8.92
2019-04-04T22:58:07.728Z,8.92
2019-04-04T23:00:37.513Z,9.01
2019-04-04T23:03:07.406Z,9.01
2019-04-04T23:05:37.151Z,9.01
2019-04-04T23:08:07.657Z,9.00
2019-04-04T23:10:37.311Z,9.00
2019-04-04T23:13:06.930Z,9.04
2019-04-04T23:15:36.670Z,9.05
2019-04-04T23:18:06.387Z,8.88
2019-04-04T23:20:36.027Z,8.81
2019-04-04T23:23:05.644Z,8.76
2019-04-04T23:25:35.356Z,8.69
2019-04-04T23:28:04.883Z,8.60
2019-04-04T23:30:34.582Z,8.60
2019-04-04T23:33:04.093Z,8.66
2019-04-04T23:35:33.756Z,8.54
2019-04-04T23:38:03.620Z,8.39
2019-04-04T23:40:33.365Z,8.39
2019-04-04T23:43:03.031Z,8.30
2019-04-04T23:45:32.622Z,8.41
2019-04-04T23:48:02.347Z,8.41
2019-04-04T23:50:31.776Z,8.34
2019-04-04T23:53:01.652Z,8.32
2019-04-04T23:55:31.237Z,8.30
2019-04-04T23:58:00.957Z,8.23
